Time;durP1;ratioP1;P1;durP2;ratioP2;P2;SDS_P1;SDS_P2;PMS_P1;PMS_P2;Temp;Humidity;BMP_temperature;BMP_pressure;BME280_temperature;BME280_humidity;BME280_pressure;Samples;Min_cycle;Max_cycle;Signal;HPM_P1;HPM_P2
2023/03/25 00:01:16;;;;;;;1.02;0.65;;;;;;;15.16;61.83;98347.03;4469514;32;34978;-76
2023/03/25 00:03:49;;;;;;;0.55;0.55;;;;;;;15.20;61.06;98347.75;4469594;32;34972;-76
2023/03/25 00:06:18;;;;;;;0.45;0.45;;;;;;;15.26;61.17;98350.09;4470662;32;33636;-76
2023/03/25 00:08:47;;;;;;;0.88;0.57;;;;;;;15.37;60.81;98350.47;4470645;32;34810;-75
2023/03/25 00:11:15;;;;;;;1.02;1.00;;;;;;;15.31;61.25;98348.94;4470594;32;35785;-75
2023/03/25 00:13:43;;;;;;;0.32;0.32;;;;;;;15.33;61.16;98346.25;4470606;32;35044;-75
2023/03/25 00:16:11;;;;;;;0.85;0.85;;;;;;;15.36;60.99;98354.84;4470572;32;33431;-76
2023/03/25 00:18:40;;;;;;;0.50;0.50;;;;;;;15.12;61.61;98359.44;4470555;32;33936;-76
2023/03/25 00:21:11;;;;;;;0.30;0.30;;;;;;;15.60;60.28;98357.25;4469412;32;35565;-76
2023/03/25 00:23:40;;;;;;;0.40;0.40;;;;;;;15.49;60.33;98364.75;4470533;32;35268;-76
2023/03/25 00:26:08;;;;;;;1.10;0.60;;;;;;;15.33;60.43;98357.59;4470391;32;34232;-76
2023/03/25 00:28:37;;;;;;;0.40;0.40;;;;;;;15.85;58.78;98361.38;4470575;32;33888;-80
2023/03/25 00:31:13;;;;;;;0.35;0.35;;;;;;;15.24;60.62;98359.81;4469281;32;35010;-77
2023/03/25 00:33:42;;;;;;;0.20;0.20;;;;;;;15.37;60.94;98355.72;4469435;32;35177;-76
2023/03/25 00:36:13;;;;;;;0.20;0.20;;;;;;;15.74;59.51;98348.69;4470717;32;34068;-76
2023/03/25 00:38:42;;;;;;;0.20;0.20;;;;;;;15.56;59.68;98355.69;4470594;32;34705;-76
2023/03/25 00:41:29;;;;;;;0.30;0.30;;;;;;;15.64;59.94;98353.56;4470409;32;35787;-76
2023/03/25 00:43:59;;;;;;;0.30;0.30;;;;;;;15.72;59.96;98361.06;4469926;32;34529;-75
2023/03/25 00:46:30;;;;;;;0.80;0.80;;;;;;;15.56;60.55;98358.31;4469185;32;33202;-75
2023/03/25 00:48:59;;;;;;;1.08;1.05;;;;;;;15.70;59.97;98361.13;4469100;32;34792;-75
2023/03/25 00:51:30;;;;;;;0.35;0.32;;;;;;;15.83;59.54;98355.31;4456364;32;34988;-76
2023/03/25 00:54:02;;;;;;;0.20;0.20;;;;;;;15.48;60.46;98352.59;4470321;32;34325;-76
2023/03/25 00:56:30;;;;;;;0.30;0.30;;;;;;;15.44;60.79;98351.88;4470273;32;34414;-85
2023/03/25 00:58:59;;;;;;;0.75;0.75;;;;;;;15.39;60.77;98355.59;4470270;32;33841;-76
2023/03/25 01:01:28;;;;;;;0.20;0.20;;;;;;;15.51;60.38;98357.66;4470249;32;35839;-75
2023/03/25 01:03:58;;;;;;;0.43;0.43;;;;;;;15.33;60.91;98354.97;4469456;32;35136;-75
2023/03/25 01:06:31;;;;;;;0.20;0.20;;;;;;;15.42;60.69;98342.34;4469112;32;33624;-75
2023/03/25 01:09:01;;;;;;;0.40;0.40;;;;;;;15.33;61.29;98354.97;4470274;32;34827;-76
2023/03/25 01:11:33;;;;;;;0.30;0.30;;;;;;;15.48;61.21;98350.81;4468984;32;34265;-76
2023/03/25 01:14:04;;;;;;;0.28;0.28;;;;;;;15.26;62.12;98348.31;4470149;32;35066;-75
2023/03/25 01:16:33;;;;;;;0.85;0.70;;;;;;;15.42;62.14;98358.09;4456248;32;34362;-75
2023/03/25 01:19:02;;;;;;;0.22;0.22;;;;;;;15.22;63.81;98351.16;4469950;32;33867;-75
2023/03/25 01:21:33;;;;;;;0.30;0.30;;;;;;;14.95;65.70;98352.31;4468938;32;35277;-76
2023/03/25 01:24:03;;;;;;;0.30;0.30;;;;;;;14.91;66.50;98353.38;4470068;32;34288;-74
2023/03/25 01:26:31;;;;;;;0.30;0.30;;;;;;;14.73;67.72;98354.19;4470011;32;33601;-75
2023/03/25 01:28:59;;;;;;;0.65;0.65;;;;;;;14.76;68.02;98364.53;4470067;32;33969;-75
2023/03/25 01:31:30;;;;;;;0.52;0.52;;;;;;;14.68;68.63;98359.63;4469047;32;35065;-75
2023/03/25 01:33:59;;;;;;;0.30;0.30;;;;;;;14.79;68.30;98362.63;4469861;32;34537;-75
2023/03/25 01:36:30;;;;;;;6.22;0.95;;;;;;;14.73;68.93;98357.66;4469872;32;34178;-75
2023/03/25 01:38:59;;;;;;;0.20;0.20;;;;;;;15.18;67.46;98360.94;4468731;32;34118;-75
2023/03/25 01:41:28;;;;;;;3.50;1.40;;;;;;;14.37;70.22;98374.00;4469740;32;35889;-75
2023/03/25 01:44:13;;;;;;;1.20;1.20;;;;;;;14.68;69.53;98364.00;4469752;32;34483;-75
2023/03/25 01:46:44;;;;;;;0.47;0.47;;;;;;;14.83;68.38;98365.97;4468545;32;33556;-76
2023/03/25 01:49:25;;;;;;;0.25;0.25;;;;;;;14.90;67.74;98367.41;4469798;32;33054;-75
2023/03/25 01:51:59;;;;;;;0.30;0.30;;;;;;;14.49;68.94;98353.41;4468600;32;35837;-76
2023/03/25 01:54:27;;;;;;;0.50;0.50;;;;;;;14.47;69.30;98377.09;4470903;32;35155;-76
2023/03/25 01:56:56;;;;;;;0.28;0.28;;;;;;;14.47;70.49;98371.84;4471565;32;33430;-75
2023/03/25 01:59:27;;;;;;;0.30;0.30;;;;;;;14.16;72.48;98374.88;4470413;32;34008;-76
2023/03/25 02:01:57;;;;;;;0.30;0.30;;;;;;;14.18;73.53;98378.28;4470459;32;35189;-75
2023/03/25 02:04:43;;;;;;;1.08;0.50;;;;;;;14.04;75.31;98391.94;4470346;32;33592;-75
2023/03/25 02:07:11;;;;;;;0.40;0.40;;;;;;;13.85;77.15;98386.56;4457574;32;34220;-75
2023/03/25 02:09:40;;;;;;;0.30;0.30;;;;;;;13.21;80.99;98382.84;4471520;32;33930;-75
2023/03/25 02:12:09;;;;;;;0.30;0.30;;;;;;;13.18;81.89;98382.97;4456788;32;35018;-75
2023/03/25 02:14:38;;;;;;;0.50;0.50;;;;;;;13.18;81.89;98376.87;4455819;32;35199;-88
2023/03/25 02:17:18;;;;;;;0.35;0.35;;;;;;;13.21;82.70;98377.63;4454753;32;34338;-78
2023/03/25 02:20:07;;;;;;;0.85;0.85;;;;;;;12.68;85.09;98381.25;4455706;32;34849;-75
2023/03/25 02:22:53;;;;;;;0.40;0.40;;;;;;;12.62;86.49;98381.47;4455873;32;35146;-75
2023/03/25 02:26:04;;;;;;;0.25;0.25;;;;;;;12.87;85.62;98371.00;4455798;32;34375;-75
2023/03/25 02:28:46;;;;;;;0.30;0.30;;;;;;;13.06;84.37;98365.13;4441836;32;33502;-85
2023/03/25 02:31:53;;;;;;;0.30;0.30;;;;;;;13.01;84.98;98362.69;4455703;32;34055;-75
2023/03/25 02:34:55;;;;;;;0.30;0.30;;;;;;;12.74;85.97;98358.44;4404691;32;35046;-81
2023/03/25 02:37:47;;;;;;;0.47;0.47;;;;;;;12.89;85.84;98365.72;4454593;32;34446;-81
2023/03/25 02:40:22;;;;;;;0.32;0.32;;;;;;;12.89;85.52;98357.91;4449662;32;33407;-75
2023/03/25 02:43:04;;;;;;;0.45;0.45;;;;;;;12.83;83.92;98352.88;4454658;32;34838;-78
2023/03/25 02:45:42;;;;;;;0.35;0.35;;;;;;;12.66;84.48;98356.94;4454683;32;34712;-76
2023/03/25 02:48:18;;;;;;;3.20;0.68;;;;;;;12.67;83.33;98353.44;4454346;32;34524;-76
2023/03/25 02:50:51;;;;;;;0.47;0.47;;;;;;;12.84;82.58;98352.81;4454502;32;33435;-86
2023/03/25 02:53:27;;;;;;;0.70;0.70;;;;;;;12.52;84.00;98353.97;4455630;32;34597;-76
2023/03/25 02:55:59;;;;;;;0.47;0.47;;;;;;;12.77;82.17;98348.72;4455596;32;35127;-76
2023/03/25 02:58:29;;;;;;;0.30;0.30;;;;;;;12.56;83.30;98358.16;4454420;32;35188;-76
2023/03/25 03:00:58;;;;;;;0.30;0.30;;;;;;;12.51;83.87;98353.13;4454617;32;33562;-76
2023/03/25 03:03:27;;;;;;;0.40;0.40;;;;;;;12.52;84.65;98356.56;4455845;32;34753;-76
2023/03/25 03:05:59;;;;;;;0.30;0.30;;;;;;;12.64;85.22;98352.69;4455193;32;34411;-76
2023/03/25 03:08:53;;;;;;;0.30;0.30;;;;;;;12.68;84.44;98347.28;4441719;32;33523;-76
2023/03/25 03:11:32;;;;;;;0.30;0.30;;;;;;;12.38;86.04;98359.66;4454290;32;33535;-76
2023/03/25 03:14:17;;;;;;;0.40;0.40;;;;;;;12.66;85.99;98349.13;4454190;32;34039;-75
2023/03/25 03:17:17;;;;;;;1.05;0.85;;;;;;;12.45;88.38;98368.13;4454315;32;35076;-76
2023/03/25 03:20:18;;;;;;;0.52;0.52;;;;;;;12.32;89.90;98362.50;4455524;32;34322;-76
2023/03/25 03:22:51;;;;;;;0.40;0.40;;;;;;;11.98;93.40;98386.22;4445788;32;33558;-75
2023/03/25 03:25:33;;;;;;;0.30;0.30;;;;;;;11.76;94.70;98379.03;4454244;32;33957;-75
2023/03/25 03:28:15;;;;;;;0.40;0.40;;;;;;;12.21;93.88;98370.69;4455302;32;34990;-75
2023/03/25 03:30:45;;;;;;;0.30;0.30;;;;;;;11.97;95.25;98376.69;4455423;32;34499;-75
2023/03/25 03:33:16;;;;;;;0.30;0.30;;;;;;;12.10;94.33;98383.22;4455359;32;33637;-76
2023/03/25 03:35:50;;;;;;;3.60;1.25;;;;;;;11.95;95.29;98380.19;4455424;32;33871;-75
2023/03/25 03:38:23;;;;;;;0.22;0.22;;;;;;;11.94;94.74;98383.69;4455208;32;35094;-75
2023/03/25 03:41:04;;;;;;;1.00;0.40;;;;;;;12.04;95.09;98388.62;4454251;32;34364;-85
2023/03/25 03:43:40;;;;;;;1.05;1.05;;;;;;;11.92;96.10;98385.50;4454124;32;34191;-76
2023/03/25 03:46:15;;;;;;;0.20;0.20;;;;;;;12.41;93.02;98395.28;4454359;32;33918;-76
2023/03/25 03:48:54;;;;;;;0.30;0.30;;;;;;;12.51;92.78;98392.28;4453792;32;35908;-75
2023/03/25 03:51:30;;;;;;;0.30;0.30;;;;;;;12.56;91.68;98396.50;4454057;32;35330;-76
2023/03/25 03:54:00;;;;;;;;;;;;;;;12.41;92.79;98397.88;4454289;32;33287;-76
2023/03/25 03:56:35;;;;;;;0.90;0.90;;;;;;;12.63;91.04;98404.06;4441383;32;34085;-76
2023/03/25 03:59:10;;;;;;;0.50;0.50;;;;;;;12.15;95.25;98412.62;4454078;32;35130;-75
2023/03/25 04:01:47;;;;;;;0.30;0.30;;;;;;;12.47;92.68;98415.94;4455118;32;34520;-76
2023/03/25 04:04:22;;;;;;;0.82;0.82;;;;;;;12.48;92.80;98415.03;4454099;32;33319;-75
2023/03/25 04:07:03;;;;;;;0.73;0.73;;;;;;;12.36;93.29;98424.13;4453912;32;33605;-75
2023/03/25 04:09:56;;;;;;;0.75;0.75;;;;;;;12.57;91.90;98422.56;4453891;32;35838;-75
2023/03/25 04:12:33;;;;;;;0.30;0.30;;;;;;;12.31;92.76;98424.25;4455128;32;35189;-76
2023/03/25 04:15:02;;;;;;;0.80;0.80;;;;;;;12.79;90.35;98427.03;4453923;32;33541;-75
2023/03/25 04:17:33;;;;;;;0.80;0.80;;;;;;;12.29;92.92;98426.06;4452753;32;33966;-75
2023/03/25 04:20:07;;;;;;;0.40;0.40;;;;;;;12.57;91.26;98425.16;4455036;32;35671;-74
2023/03/25 04:22:36;;;;;;;0.57;0.57;;;;;;;12.67;90.15;98429.19;4453894;32;34520;-75
2023/03/25 04:25:05;;;;;;;0.52;0.52;;;;;;;12.77;89.18;98429.72;4453781;32;33409;-75
2023/03/25 04:27:36;;;;;;;0.60;0.60;;;;;;;12.55;90.82;98432.22;4454912;32;33929;-75
2023/03/25 04:30:06;;;;;;;0.60;0.60;;;;;;;12.65;90.46;98432.75;4455076;32;36004;-75
2023/03/25 04:32:34;;;;;;;0.45;0.45;;;;;;;12.11;93.15;98435.34;4453832;32;35170;-75
2023/03/25 04:35:03;;;;;;;0.45;0.45;;;;;;;12.03;92.79;98428.66;4454887;32;34303;-82
2023/03/25 04:37:35;;;;;;;0.30;0.30;;;;;;;12.13;92.68;98436.16;4455079;32;34093;-75
2023/03/25 04:40:08;;;;;;;0.60;0.60;;;;;;;12.30;92.01;98448.69;4454924;32;35966;-75
2023/03/25 04:42:36;;;;;;;0.30;0.30;;;;;;;12.44;89.21;98449.97;4455128;32;34298;-81
2023/03/25 04:45:05;;;;;;;0.22;0.22;;;;;;;12.55;89.18;98445.28;4455047;32;34309;-80
2023/03/25 04:47:33;;;;;;;0.30;0.30;;;;;;;12.73;86.45;98440.34;4454798;32;33865;-75
2023/03/25 04:50:01;;;;;;;0.52;0.52;;;;;;;12.67;86.68;98447.47;4451424;32;35126;-81
2023/03/25 04:52:30;;;;;;;3.70;0.85;;;;;;;12.70;86.02;98457.78;4454435;32;34301;-79
2023/03/25 04:54:58;;;;;;;0.28;0.28;;;;;;;12.58;87.22;98463.44;4454519;32;33214;-78
2023/03/25 04:57:27;;;;;;;1.12;0.55;;;;;;;12.49;87.36;98468.97;4454596;32;34732;-81
2023/03/25 04:59:55;;;;;;;0.50;0.50;;;;;;;12.66;85.90;98471.88;4454485;32;35015;-80
2023/03/25 05:02:23;;;;;;;0.43;0.43;;;;;;;12.67;85.72;98470.97;4454497;32;35152;-75
2023/03/25 05:04:53;;;;;;;0.65;0.65;;;;;;;12.28;86.63;98476.59;4454698;32;33441;-81
2023/03/25 05:07:21;;;;;;;0.30;0.30;;;;;;;12.29;86.29;98472.22;4454393;32;34061;-78
2023/03/25 05:09:49;;;;;;;0.30;0.30;;;;;;;12.30;85.43;98474.78;4454398;32;35002;-79
2023/03/25 05:12:17;;;;;;;0.35;0.35;;;;;;;12.48;84.30;98475.94;4454430;32;34382;-78
2023/03/25 05:14:46;;;;;;;1.33;0.80;;;;;;;12.60;83.08;98477.31;4454464;32;33338;-77
2023/03/25 05:17:14;;;;;;;0.30;0.30;;;;;;;12.67;81.96;98484.03;4454260;32;33685;-75
2023/03/25 05:19:44;;;;;;;0.30;0.30;;;;;;;12.51;81.76;98488.91;4454259;32;35989;-78
2023/03/25 05:22:13;;;;;;;0.30;0.30;;;;;;;12.71;81.58;98490.00;4454504;32;35194;-78
2023/03/25 05:24:43;;;;;;;0.30;0.30;;;;;;;12.55;81.73;98492.28;4454699;32;33485;-74
2023/03/25 05:27:12;;;;;;;0.77;0.77;;;;;;;12.59;81.94;98495.62;4454136;32;34744;-75
2023/03/25 05:29:43;;;;;;;0.40;0.40;;;;;;;12.43;82.51;98487.44;4453807;32;35100;-75
2023/03/25 05:32:16;;;;;;;0.30;0.30;;;;;;;12.26;80.91;98494.03;4454169;32;34393;-74
2023/03/25 05:34:47;;;;;;;0.30;0.30;;;;;;;12.53;80.09;98486.25;4454333;32;33428;-77
2023/03/25 05:37:16;;;;;;;0.30;0.30;;;;;;;12.49;80.39;98489.84;4454194;32;34794;-79
2023/03/25 05:39:45;;;;;;;0.30;0.30;;;;;;;12.60;79.32;98487.75;4454055;32;35822;-78
2023/03/25 05:42:13;;;;;;;0.30;0.30;;;;;;;12.97;77.93;98483.91;4454413;32;34335;-77
2023/03/25 05:44:50;;;;;;;0.50;0.50;;;;;;;12.49;80.14;98495.06;4453941;32;33460;-75
2023/03/25 05:47:20;;;;;;;0.50;0.50;;;;;;;12.47;80.77;98496.88;4443436;32;336897;-79
2023/03/25 05:49:50;;;;;;;0.40;0.40;;;;;;;12.48;79.91;98494.22;4452693;32;35865;-79
2023/03/25 05:52:23;;;;;;;0.30;0.30;;;;;;;12.32;80.53;98498.22;4452860;32;34492;-79
2023/03/25 05:54:51;;;;;;;0.30;0.30;;;;;;;12.44;80.23;98497.84;4452875;32;33529;-81
2023/03/25 05:57:20;;;;;;;0.40;0.40;;;;;;;12.32;80.49;98500.84;4453806;32;34800;-80
2023/03/25 05:59:48;;;;;;;0.30;0.30;;;;;;;12.27;80.76;98495.75;4453798;32;35868;-75
2023/03/25 06:02:17;;;;;;;0.40;0.40;;;;;;;12.24;81.23;98500.22;4453995;32;35314;-75
2023/03/25 06:04:49;;;;;;;0.62;0.62;;;;;;;12.40;80.50;98505.81;4453811;32;33519;-74
2023/03/25 06:07:21;;;;;;;0.40;0.40;;;;;;;12.47;79.60;98512.53;4453248;32;34707;-75
2023/03/25 06:09:52;;;;;;;0.40;0.40;;;;;;;12.48;79.81;98516.88;4452697;32;35008;-74
2023/03/25 06:12:22;;;;;;;0.30;0.30;;;;;;;12.45;79.89;98514.34;4453872;32;34314;-77
2023/03/25 06:14:52;;;;;;;0.32;0.32;;;;;;;12.48;80.38;98514.25;4452762;32;34272;-74
2023/03/25 06:17:21;;;;;;;0.30;0.30;;;;;;;12.25;81.37;98512.38;4454454;32;33909;-74
2023/03/25 06:19:50;;;;;;;0.35;0.35;;;;;;;12.25;81.98;98510.62;4452613;32;35139;-75
2023/03/25 06:22:20;;;;;;;0.40;0.40;;;;;;;12.44;81.40;98512.63;4451992;32;34296;-75
2023/03/25 06:24:51;;;;;;;0.37;0.37;;;;;;;12.39;80.58;98515.41;4453569;32;33597;-77
2023/03/25 06:27:20;;;;;;;0.35;0.35;;;;;;;12.51;80.60;98509.81;4436814;32;32709;-73
2023/03/25 06:29:49;;;;;;;0.55;0.55;;;;;;;12.66;80.40;98518.03;4437975;32;34778;-76
2023/03/25 06:32:17;;;;;;;0.40;0.40;;;;;;;12.68;80.23;98519.69;4440781;32;34466;-78
2023/03/25 06:34:46;;;;;;;0.52;0.52;;;;;;;12.61;80.30;98514.72;4453393;32;33407;-75
2023/03/25 06:37:14;;;;;;;0.40;0.40;;;;;;;12.93;79.24;98526.72;4453353;32;34802;-77
2023/03/25 06:39:48;;;;;;;0.30;0.30;;;;;;;12.88;79.72;98526.00;4452222;32;35739;-76
2023/03/25 06:42:17;;;;;;;0.65;0.65;;;;;;;12.95;79.05;98535.34;4454468;32;35215;-78
2023/03/25 06:44:46;;;;;;;0.47;0.47;;;;;;;13.20;77.97;98534.53;4456004;32;33414;-75
2023/03/25 06:47:15;;;;;;;0.50;0.50;;;;;;;13.12;78.46;98531.34;4455632;32;34774;-75
2023/03/25 06:49:44;;;;;;;0.68;0.68;;;;;;;13.15;78.60;98532.09;4454916;32;35138;-73
2023/03/25 06:52:13;;;;;;;0.30;0.30;;;;;;;13.11;79.71;98534.84;4454247;32;35213;-73
2023/03/25 06:54:41;;;;;;;0.85;0.85;;;;;;;12.86;80.61;98531.28;4454620;32;33486;-79
2023/03/25 06:57:09;;;;;;;0.90;0.82;;;;;;;13.28;79.43;98533.34;4455308;32;34841;-74
2023/03/25 06:59:38;;;;;;;0.40;0.40;;;;;;;13.78;76.43;98537.75;4455438;32;35151;-77
2023/03/25 07:02:06;;;;;;;0.90;0.73;;;;;;;14.03;74.74;98535.06;4455320;32;34147;-79
2023/03/25 07:04:35;;;;;;;0.60;0.60;;;;;;;13.91;76.14;98532.06;4454294;32;33562;-79
2023/03/25 07:07:03;;;;;;;0.35;0.35;;;;;;;14.46;74.09;98539.56;4455298;32;33782;-76
2023/03/25 07:09:31;;;;;;;0.30;0.30;;;;;;;14.53;73.13;98538.41;4455262;32;35843;-75
2023/03/25 07:12:00;;;;;;;0.95;0.95;;;;;;;14.57;72.13;98546.06;4453952;32;33606;-74
2023/03/25 07:14:28;;;;;;;0.85;0.85;;;;;;;14.25;72.01;98549.09;4455390;32;33382;-77
2023/03/25 07:16:56;;;;;;;1.27;1.20;;;;;;;14.33;73.12;98549.62;4455226;32;33925;-80
2023/03/25 07:19:24;;;;;;;0.50;0.50;;;;;;;14.71;72.62;98555.16;4455128;32;35140;-79
2023/03/25 07:21:52;;;;;;;0.47;0.47;;;;;;;14.71;72.37;98556.00;4455165;32;34530;-75
2023/03/25 07:24:21;;;;;;;0.30;0.30;;;;;;;14.94;70.18;98555.06;4455213;32;33428;-78
2023/03/25 07:26:49;;;;;;;0.32;0.32;;;;;;;14.40;72.38;98556.38;4455213;32;33984;-78
2023/03/25 07:29:19;;;;;;;0.37;0.37;;;;;;;14.56;72.72;98559.25;4455190;32;35017;-80
2023/03/25 07:31:47;;;;;;;0.30;0.30;;;;;;;14.33;70.50;98560.97;4455486;32;34420;-78
2023/03/25 07:34:16;;;;;;;0.50;0.50;;;;;;;14.05;71.95;98561.19;4454975;32;33429;-77
2023/03/25 07:36:44;;;;;;;0.47;0.47;;;;;;;14.68;70.37;98555.28;4455155;32;34777;-76
2023/03/25 07:39:12;;;;;;;0.30;0.30;;;;;;;14.97;68.61;98551.50;4454980;32;34899;-74
2023/03/25 07:41:41;;;;;;;0.30;0.30;;;;;;;14.97;68.05;98551.50;4454709;32;34563;-76
2023/03/25 07:44:11;;;;;;;0.30;0.30;;;;;;;14.89;65.42;98543.94;4454110;32;33410;-74
2023/03/25 07:46:39;;;;;;;2.12;1.77;;;;;;;14.51;69.41;98543.69;4455271;32;33889;-74
2023/03/25 07:49:08;;;;;;;0.37;0.37;;;;;;;14.84;67.24;98552.91;4454989;32;35945;-73
2023/03/25 07:51:36;;;;;;;0.28;0.28;;;;;;;14.89;65.71;98543.94;4454583;32;34381;-81
2023/03/25 07:54:04;;;;;;;0.25;0.25;;;;;;;15.38;64.71;98551.50;4438362;32;33383;-73
2023/03/25 07:56:34;;;;;;;0.50;0.50;;;;;;;15.77;64.75;98540.22;4439469;32;34820;-72
2023/03/25 07:59:03;;;;;;;0.40;0.40;;;;;;;15.99;64.51;98545.34;4450811;32;35039;-75
2023/03/25 08:01:31;;;;;;;0.40;0.40;;;;;;;16.20;62.08;98545.28;4439533;32;35154;-74
2023/03/25 08:03:59;;;;;;;0.30;0.30;;;;;;;16.06;62.26;98544.16;4454027;32;33467;-75
2023/03/25 08:06:28;;;;;;;0.20;0.20;;;;;;;15.41;64.23;98555.78;4455242;32;33887;-76
2023/03/25 08:08:56;;;;;;;1.67;1.20;;;;;;;15.26;63.21;98552.87;4438114;32;35034;-75
2023/03/25 08:11:24;;;;;;;0.25;0.25;;;;;;;15.30;63.42;98558.84;4439573;32;34484;-76
2023/03/25 08:13:52;;;;;;;0.30;0.30;;;;;;;15.52;62.22;98566.66;4452882;32;34181;-73
2023/03/25 08:16:22;;;;;;;0.30;0.30;;;;;;;15.52;63.95;98561.41;4454935;32;33981;-73
2023/03/25 08:18:51;;;;;;;0.62;0.62;;;;;;;15.61;63.67;98552.28;4454871;32;34832;-76
2023/03/25 08:21:23;;;;;;;0.30;0.30;;;;;;;16.61;62.73;98548.59;4454760;32;35301;-78
2023/03/25 08:24:01;;;;;;;0.25;0.25;;;;;;;17.37;60.43;98547.53;4454899;32;33398;-76
2023/03/25 08:26:30;;;;;;;22.95;1.42;;;;;;;17.88;57.17;98552.81;4454920;32;34709;-77
2023/03/25 08:29:01;;;;;;;0.20;0.20;;;;;;;18.16;55.32;98547.75;4438115;32;34182;-77
2023/03/25 08:31:31;;;;;;;0.80;0.55;;;;;;;18.66;54.39;98550.28;4438341;32;35012;-76
2023/03/25 08:34:01;;;;;;;0.30;0.30;;;;;;;19.12;53.37;98547.69;4438923;32;34296;-77
2023/03/25 08:36:29;;;;;;;1.33;1.23;;;;;;;18.72;52.49;98550.81;4453652;32;34689;-76
2023/03/25 08:38:57;;;;;;;0.35;0.35;;;;;;;18.72;52.97;98532.34;4453584;32;35762;-77
2023/03/25 08:41:26;;;;;;;0.93;0.88;;;;;;;19.40;50.46;98525.78;4454702;32;35353;-77
2023/03/25 08:43:54;;;;;;;4.00;0.65;;;;;;;18.73;52.59;98533.19;4454624;32;33436;-77
2023/03/25 08:46:22;;;;;;;0.40;0.40;;;;;;;19.76;49.66;98529.78;4454630;32;34650;-76
2023/03/25 08:48:52;;;;;;;0.50;0.50;;;;;;;19.43;50.83;98537.94;4453414;32;35115;-76
2023/03/25 08:51:20;;;;;;;0.20;0.20;;;;;;;18.71;51.86;98541.19;4454675;32;34376;-76
2023/03/25 08:53:49;;;;;;;0.20;0.20;;;;;;;19.37;52.11;98552.34;4454727;32;33598;-76
2023/03/25 08:56:18;;;;;;;0.10;0.10;;;;;;;20.03;49.27;98547.50;4454466;32;35409;-76
2023/03/25 08:58:46;;;;;;;5.40;1.10;;;;;;;19.97;49.46;98540.81;4454498;32;35991;-76
2023/03/25 09:01:15;;;;;;;7.55;1.35;;;;;;;20.42;47.74;98532.75;4454240;32;35274;-76
2023/03/25 09:03:43;;;;;;;0.43;0.43;;;;;;;20.12;48.50;98535.50;4464073;32;33512;-76
2023/03/25 09:06:11;;;;;;;0.73;0.73;;;;;;;20.41;47.49;98536.31;4470105;32;33938;-78
2023/03/25 09:08:40;;;;;;;0.20;0.20;;;;;;;20.92;48.44;98533.91;4469754;32;35163;-78
2023/03/25 09:11:08;;;;;;;0.25;0.25;;;;;;;20.78;47.37;98533.97;4469997;32;35257;-77
2023/03/25 09:13:36;;;;;;;2.30;1.62;;;;;;;20.37;47.65;98537.47;4468734;32;33916;-76
2023/03/25 09:16:05;;;;;;;1.65;1.30;;;;;;;20.30;47.88;98544.09;4468792;32;34774;-76
2023/03/25 09:18:35;;;;;;;0.73;0.73;;;;;;;21.20;45.86;98540.00;4469651;32;35916;-76
2023/03/25 09:21:03;;;;;;;0.93;0.90;;;;;;;20.98;46.02;98546.75;4468788;32;35114;-76
2023/03/25 09:23:32;;;;;;;3.50;1.45;;;;;;;20.10;47.57;98548.84;4468587;32;33192;-75
2023/03/25 09:26:02;;;;;;;0.30;0.30;;;;;;;21.10;46.26;98549.50;4468827;32;34006;-76
2023/03/25 09:28:30;;;;;;;0.45;0.32;;;;;;;21.23;46.18;98533.66;4468283;32;36558;-75
2023/03/25 09:30:59;;;;;;;4.78;0.40;;;;;;;19.79;45.77;98544.63;4470046;32;34580;-78
2023/03/25 09:33:28;;;;;;;1.85;0.60;;;;;;;20.42;48.58;98544.16;4468415;32;32962;-75
2023/03/25 09:35:56;;;;;;;1.00;1.00;;;;;;;21.40;44.64;98544.78;4469917;32;34027;-77
2023/03/25 09:38:24;;;;;;;0.20;0.20;;;;;;;20.99;44.93;98537.00;4469466;32;35041;-76
2023/03/25 09:40:54;;;;;;;1.02;1.00;;;;;;;21.57;44.69;98537.53;4469642;32;33723;-76
2023/03/25 09:43:46;;;;;;;0.40;0.40;;;;;;;21.62;43.69;98540.72;4469585;32;32954;-78
2023/03/25 09:46:14;;;;;;;0.77;0.60;;;;;;;20.36;44.77;98538.41;4462097;32;34913;-77
2023/03/25 09:48:45;;;;;;;0.20;0.20;;;;;;;20.89;43.83;98539.38;4468116;32;35108;-76
2023/03/25 09:51:20;;;;;;;0.75;0.75;;;;;;;21.90;42.34;98544.09;4468105;32;35192;-76
2023/03/25 09:54:17;;;;;;;0.30;0.30;;;;;;;22.85;40.63;98550.56;4469460;32;33455;-75
2023/03/25 09:56:46;;;;;;;0.20;0.20;;;;;;;22.15;38.87;98538.75;4464539;32;33752;-77
2023/03/25 09:59:19;;;;;;;0.60;0.60;;;;;;;20.33;42.02;98552.69;4467267;32;35146;-76
2023/03/25 10:01:58;;;;;;;0.57;0.57;;;;;;;19.95;43.56;98552.44;4467936;32;34239;-76
2023/03/25 10:04:47;;;;;;;0.80;0.40;;;;;;;19.86;44.60;98557.34;4467854;32;33414;-77
2023/03/25 10:07:21;;;;;;;0.62;0.57;;;;;;;19.39;45.13;98560.19;4469232;32;34657;-76
2023/03/25 10:10:14;;;;;;;0.47;0.40;;;;;;;20.07;45.06;98549.03;4468654;32;34619;-76
2023/03/25 10:12:46;;;;;;;0.40;0.40;;;;;;;21.76;43.21;98564.47;4468777;32;35273;-77
2023/03/25 10:15:53;;;;;;;0.20;0.20;;;;;;;22.24;39.20;98557.62;4469302;32;32877;-76
2023/03/25 10:18:36;;;;;;;0.50;0.50;;;;;;;22.52;39.03;98557.34;4469892;32;34318;-79
2023/03/25 10:21:15;;;;;;;0.20;0.20;;;;;;;22.43;38.86;98552.72;4471282;32;34952;-76
2023/03/25 10:24:02;;;;;;;0.35;0.35;;;;;;;23.08;37.80;98553.31;4469943;32;34506;-75
2023/03/25 10:27:10;;;;;;;0.30;0.30;;;;;;;24.32;36.24;98556.16;4470627;32;33424;-76
2023/03/25 10:29:43;;;;;;;0.25;0.25;;;;;;;24.60;34.59;98543.31;4447215;32;34656;-78
2023/03/25 10:32:26;;;;;;;0.60;0.60;;;;;;;25.33;33.82;98544.38;4470027;32;35929;-77
2023/03/25 10:34:56;;;;;;;0.30;0.30;;;;;;;25.37;32.42;98550.28;4471170;32;34573;-79
2023/03/25 10:37:29;;;;;;;0.10;0.10;;;;;;;25.98;30.42;98548.69;4469945;32;32672;-77
2023/03/25 10:40:31;;;;;;;0.13;0.13;;;;;;;25.87;32.46;98550.44;4470854;32;34765;-76
2023/03/25 10:43:22;;;;;;;0.52;0.50;;;;;;;24.62;32.85;98545.84;4470490;32;35022;-78
2023/03/25 10:45:57;;;;;;;0.65;0.47;;;;;;;22.15;37.02;98548.53;4471007;32;34375;-76
2023/03/25 10:48:30;;;;;;;0.40;0.40;;;;;;;21.46;36.65;98561.25;4457193;32;33525;-77
2023/03/25 10:51:07;;;;;;;2.17;0.40;;;;;;;21.81;35.31;98560.63;4457017;32;33194;-77
2023/03/25 10:53:36;;;;;;;0.80;0.52;;;;;;;21.72;36.76;98556.81;4470857;32;35023;-77
2023/03/25 10:56:27;;;;;;;0.10;0.10;;;;;;;22.12;36.74;98549.56;4471047;32;33577;-76
2023/03/25 10:58:56;;;;;;;1.05;0.85;;;;;;;21.96;36.46;98557.75;4469566;32;34306;-75
2023/03/25 11:01:38;;;;;;;0.20;0.20;;;;;;;21.80;36.57;98564.25;4470905;32;34054;-78
2023/03/25 11:04:09;;;;;;;0.40;0.40;;;;;;;20.19;38.11;98569.41;4470593;32;35160;-78
2023/03/25 11:06:39;;;;;;;0.32;0.32;;;;;;;18.89;40.55;98554.28;4469878;32;34479;-75
2023/03/25 11:09:29;;;;;;;0.47;0.43;;;;;;;19.23;40.16;98562.88;4469602;32;33533;-76
2023/03/25 11:12:00;;;;;;;0.30;0.30;;;;;;;19.72;40.01;98570.50;4469693;32;33890;-77
2023/03/25 11:14:29;;;;;;;0.20;0.20;;;;;;;19.64;40.44;98559.56;4469612;32;35019;-77
2023/03/25 11:17:02;;;;;;;0.20;0.20;;;;;;;20.74;38.92;98564.22;4471136;32;34412;-80
2023/03/25 11:19:46;;;;;;;0.20;0.20;;;;;;;21.20;36.38;98546.16;4469516;32;33438;-76
2023/03/25 11:22:18;;;;;;;0.28;0.28;;;;;;;19.74;38.65;98567.81;4470729;32;34011;-76
2023/03/25 11:24:49;;;;;;;0.30;0.28;;;;;;;19.10;40.39;98575.94;4469443;32;34994;-77
2023/03/25 11:27:21;;;;;;;0.43;0.43;;;;;;;19.30;39.87;98580.91;4469176;32;34329;-77
2023/03/25 11:30:03;;;;;;;0.30;0.30;;;;;;;19.38;38.94;98566.41;4470496;32;34147;-78
2023/03/25 11:32:36;;;;;;;0.20;0.20;;;;;;;19.79;39.16;98579.78;4469996;32;33415;-79
2023/03/25 11:35:26;;;;;;;0.30;0.30;;;;;;;20.20;37.53;98581.66;4470467;32;35008;-77
2023/03/25 11:38:00;;;;;;;0.28;0.28;;;;;;;18.69;40.50;98568.59;4469498;32;35284;-77
2023/03/25 11:40:29;;;;;;;0.20;0.20;;;;;;;18.79;39.96;98585.56;4469429;32;33513;-77
2023/03/25 11:42:59;;;;;;;1.02;0.93;;;;;;;18.57;41.15;98575.41;4470998;32;34771;-77
2023/03/25 11:45:44;;;;;;;0.20;0.20;;;;;;;18.38;40.28;98580.81;4470388;32;34926;-78
2023/03/25 11:48:30;;;;;;;0.40;0.40;;;;;;;18.43;41.90;98573.53;4469311;32;34388;-74
2023/03/25 11:51:01;;;;;;;0.20;0.20;;;;;;;17.86;43.21;98576.59;4469371;32;33293;-77
2023/03/25 11:53:31;;;;;;;0.20;0.20;;;;;;;18.21;41.57;98573.81;4470427;32;34755;-76
2023/03/25 11:56:05;;;;;;;0.20;0.20;;;;;;;18.40;41.38;98560.50;4469395;32;34898;-76
2023/03/25 11:58:36;;;;;;;0.25;0.25;;;;;;;18.33;42.46;98561.78;4469232;32;35034;-76
2023/03/25 12:01:07;;;;;;;0.57;0.57;;;;;;;18.41;42.65;98570.13;4470495;32;33402;-74